createdAt,value
2018-01-01T00:01:10.257Z,12.27
2018-01-01T00:03:38.062Z,14.10
2018-01-01T00:06:06.498Z,12.57
2018-01-01T00:08:34.153Z,11.03
2018-01-01T00:11:01.794Z,11.00
2018-01-01T00:13:29.528Z,11.13
2018-01-01T00:15:58.021Z,10.50
2018-01-01T00:18:25.747Z,8.00
2018-01-01T00:20:53.462Z,8.80
2018-01-01T00:23:21.172Z,9.23
2018-01-01T00:25:48.853Z,7.93
2018-01-01T00:28:17.302Z,10.60
2018-01-01T00:30:44.924Z,7.17
2018-01-01T00:33:12.570Z,7.20
2018-01-01T00:35:40.273Z,7.13
2018-01-01T00:38:08.033Z,7.70
2018-01-01T00:40:35.667Z,6.77
2018-01-01T00:43:03.354Z,6.90
2018-01-01T00:45:31.037Z,6.27
2018-01-01T00:47:58.683Z,7.90
2018-01-01T00:50:26.393Z,6.67
2018-01-01T00:52:54.821Z,7.47
2018-01-01T00:55:22.493Z,6.37
2018-01-01T00:57:50.197Z,6.53
2018-01-01T01:00:18.629Z,6.57
2018-01-01T01:02:46.269Z,8.13
2018-01-01T01:05:13.975Z,6.50
2018-01-01T01:07:41.617Z,7.10
2018-01-01T01:10:09.239Z,5.60
2018-01-01T01:12:36.928Z,6.10
2018-01-01T01:15:04.590Z,6.33
2018-01-01T01:17:32.245Z,6.73
2018-01-01T01:19:59.937Z,7.63
2018-01-01T01:22:27.606Z,6.93
2018-01-01T01:24:55.273Z,6.50
2018-01-01T01:27:23.797Z,7.10
2018-01-01T01:29:51.455Z,6.67
2018-01-01T01:32:19.110Z,5.03
2018-01-01T01:34:46.829Z,5.77
2018-01-01T01:37:14.524Z,5.20
2018-01-01T01:39:42.195Z,5.77
2018-01-01T01:42:09.911Z,5.60
2018-01-01T01:44:37.575Z,5.53
2018-01-01T01:47:05.257Z,5.60
2018-01-01T01:49:33.715Z,5.90
2018-01-01T01:52:01.337Z,5.30
2018-01-01T01:54:28.964Z,5.10
2018-01-01T01:56:57.389Z,5.30
2018-01-01T01:59:25.070Z,5.60
2018-01-01T02:01:52.718Z,5.20
2018-01-01T02:04:20.475Z,4.70
2018-01-01T02:06:48.423Z,5.73
2018-01-01T02:09:16.072Z,5.10
2018-01-01T02:11:43.738Z,5.37
2018-01-01T02:14:11.407Z,4.33
2018-01-01T02:16:39.076Z,4.50
2018-01-01T02:19:06.749Z,5.37
2018-01-01T02:21:34.379Z,5.33
2018-01-01T02:24:02.043Z,5.47
2018-01-01T02:26:29.691Z,5.10
2018-01-01T02:28:58.118Z,5.27
2018-01-01T02:31:25.762Z,5.10
2018-01-01T02:33:53.501Z,4.80
2018-01-01T02:36:21.183Z,5.40
2018-01-01T02:38:48.858Z,5.00
2018-01-01T02:41:16.545Z,5.40
2018-01-01T02:43:44.215Z,5.63
2018-01-01T02:46:11.848Z,6.17
2018-01-01T02:48:39.532Z,6.23
2018-01-01T02:51:07.183Z,5.97
2018-01-01T02:53:34.807Z,6.17
2018-01-01T02:56:02.475Z,17.73
2018-01-01T02:58:30.123Z,12.87
2018-01-01T03:00:57.765Z,10.40
2018-01-01T03:03:25.468Z,6.87
2018-01-01T03:05:53.112Z,4.80
2018-01-01T03:08:22.029Z,5.30
2018-01-01T03:10:49.709Z,4.77
2018-01-01T03:13:17.399Z,5.03
2018-01-01T03:15:45.032Z,4.70
2018-01-01T03:18:12.752Z,5.23
2018-01-01T03:20:40.399Z,4.83
2018-01-01T03:23:08.075Z,3.77
2018-01-01T03:25:35.746Z,4.53
2018-01-01T03:28:03.365Z,5.07
2018-01-01T03:30:31.756Z,4.33
2018-01-01T03:33:00.255Z,5.20
2018-01-01T03:35:27.904Z,3.63
2018-01-01T03:37:55.546Z,5.00
2018-01-01T03:40:23.985Z,4.93
2018-01-01T03:42:51.692Z,5.63
2018-01-01T03:45:20.088Z,4.00
2018-01-01T03:47:47.763Z,4.67
2018-01-01T03:50:15.407Z,4.17
2018-01-01T03:52:43.810Z,6.23
2018-01-01T03:55:11.492Z,4.10
2018-01-01T03:57:39.113Z,5.07
2018-01-01T04:00:06.724Z,5.33
2018-01-01T04:02:34.392Z,4.20
2018-01-01T04:05:01.995Z,4.80
2018-01-01T04:07:29.612Z,4.77
2018-01-01T04:09:57.522Z,4.00
2018-01-01T04:12:25.144Z,4.50
2018-01-01T04:14:52.757Z,4.10
2018-01-01T04:17:20.409Z,3.47
2018-01-01T04:19:48.045Z,4.63
2018-01-01T04:22:15.693Z,3.87
2018-01-01T04:24:43.356Z,3.23
2018-01-01T04:27:10.981Z,3.60
2018-01-01T04:29:38.593Z,4.20
2018-01-01T04:32:07.039Z,4.00
2018-01-01T04:34:34.657Z,3.57
2018-01-01T04:37:02.324Z,3.23
2018-01-01T04:39:29.980Z,3.30
2018-01-01T04:41:57.630Z,3.30
2018-01-01T04:44:26.022Z,3.47
2018-01-01T04:46:53.669Z,3.37
2018-01-01T04:49:22.050Z,3.30
2018-01-01T04:51:49.685Z,3.97
2018-01-01T04:54:17.352Z,3.73
2018-01-01T04:56:45.036Z,3.60
2018-01-01T04:59:12.647Z,4.00
2018-01-01T05:01:40.307Z,4.10
2018-01-01T05:04:07.968Z,3.40
2018-01-01T05:06:35.575Z,3.80
2018-01-01T05:09:03.250Z,3.20
2018-01-01T05:11:30.901Z,3.53
2018-01-01T05:13:58.548Z,3.87
2018-01-01T05:16:26.214Z,3.77
2018-01-01T05:18:54.630Z,2.73
2018-01-01T05:21:22.267Z,2.93
2018-01-01T05:23:49.971Z,3.63
2018-01-01T05:26:17.596Z,3.37
2018-01-01T05:28:45.220Z,3.17
2018-01-01T05:31:13.662Z,3.57
2018-01-01T05:33:41.321Z,4.53
2018-01-01T05:36:08.954Z,3.30
2018-01-01T05:38:36.711Z,4.43
2018-01-01T05:41:04.517Z,3.60
2018-01-01T05:43:32.186Z,3.50
2018-01-01T05:45:59.840Z,4.77
2018-01-01T05:48:27.660Z,3.97
2018-01-01T05:50:55.325Z,3.70
2018-01-01T05:53:23.011Z,3.47
2018-01-01T05:55:50.668Z,4.40
2018-01-01T05:58:18.311Z,3.63
2018-01-01T06:00:45.990Z,3.57
2018-01-01T06:03:13.642Z,4.60
2018-01-01T06:05:41.277Z,4.50
2018-01-01T06:08:09.726Z,3.70
2018-01-01T06:10:37.364Z,3.80
2018-01-01T06:13:04.991Z,3.53
2018-01-01T06:15:32.762Z,2.77
2018-01-01T06:18:00.395Z,4.17
2018-01-01T06:20:28.045Z,4.10
2018-01-01T06:22:55.715Z,3.47
2018-01-01T06:25:24.136Z,3.50
2018-01-01T06:27:51.762Z,3.50
2018-01-01T06:30:20.201Z,3.83
2018-01-01T06:32:47.830Z,4.77
2018-01-01T06:35:15.492Z,4.13
2018-01-01T06:37:43.192Z,3.33
2018-01-01T06:40:10.840Z,3.53
2018-01-01T06:42:38.450Z,3.97
2018-01-01T06:45:06.923Z,3.67
2018-01-01T06:47:34.620Z,3.70
2018-01-01T06:50:02.236Z,3.60
2018-01-01T06:52:30.715Z,4.13
2018-01-01T06:54:58.366Z,4.30
2018-01-01T06:57:26.048Z,3.40
2018-01-01T06:59:53.715Z,3.20
2018-01-01T07:02:22.119Z,3.50
2018-01-01T07:04:49.768Z,3.70
2018-01-01T07:07:18.223Z,4.87
2018-01-01T07:09:45.896Z,3.80
2018-01-01T07:12:13.574Z,4.03
2018-01-01T07:14:41.271Z,4.20
2018-01-01T07:17:09.719Z,3.13
2018-01-01T07:19:37.348Z,4.20
2018-01-01T07:22:05.017Z,4.23
2018-01-01T07:24:33.406Z,4.00
2018-01-01T07:27:01.066Z,3.97
2018-01-01T07:29:29.666Z,5.20
2018-01-01T07:31:57.291Z,3.97
2018-01-01T07:34:24.983Z,4.67
2018-01-01T07:36:52.658Z,4.13
2018-01-01T07:39:20.304Z,5.73
2018-01-01T07:41:48.696Z,4.30
2018-01-01T07:44:16.365Z,5.40
2018-01-01T07:46:43.973Z,5.10
2018-01-01T07:49:11.601Z,4.60
2018-01-01T07:51:39.293Z,6.00
2018-01-01T07:54:06.972Z,4.70
2018-01-01T07:56:34.669Z,4.90
2018-01-01T07:59:02.417Z,5.50
2018-01-01T08:01:30.833Z,4.73
2018-01-01T08:03:58.473Z,3.83
2018-01-01T08:06:26.142Z,4.80
2018-01-01T08:08:53.870Z,6.37
2018-01-01T08:11:22.298Z,4.60
2018-01-01T08:13:50.075Z,5.50
2018-01-01T08:16:17.705Z,4.27
2018-01-01T08:18:45.313Z,5.10
2018-01-01T08:21:13.001Z,6.27
2018-01-01T08:23:41.397Z,5.67
2018-01-01T08:26:09.052Z,7.40
2018-01-01T08:28:36.742Z,7.40
2018-01-01T08:31:04.404Z,6.37
2018-01-01T08:33:32.037Z,5.60
2018-01-01T08:35:59.696Z,6.63
2018-01-01T08:38:27.326Z,5.73
2018-01-01T08:40:54.961Z,6.77
2018-01-01T08:43:22.666Z,6.60
2018-01-01T08:45:51.077Z,6.27
2018-01-01T08:48:18.680Z,6.57
2018-01-01T08:50:46.333Z,8.93
2018-01-01T08:53:13.946Z,7.73
2018-01-01T08:55:42.346Z,7.47
2018-01-01T08:58:10.054Z,7.67
2018-01-01T09:00:37.684Z,9.00
2018-01-01T09:03:05.296Z,7.27
2018-01-01T09:05:32.952Z,7.97
2018-01-01T09:08:00.593Z,9.70
2018-01-01T09:10:28.216Z,9.00
2018-01-01T09:12:55.890Z,8.60
2018-01-01T09:15:23.489Z,9.97
2018-01-01T09:17:51.367Z,8.87
2018-01-01T09:20:19.019Z,9.53
2018-01-01T09:22:46.652Z,9.67
2018-01-01T09:25:14.304Z,9.10
2018-01-01T09:27:41.961Z,9.90
2018-01-01T09:30:09.574Z,9.07
2018-01-01T09:32:37.228Z,8.00
2018-01-01T09:35:04.926Z,8.90
2018-01-01T09:37:32.559Z,9.90
2018-01-01T09:40:00.191Z,8.90
2018-01-01T09:42:27.870Z,8.97
2018-01-01T09:44:55.490Z,8.43
2018-01-01T09:47:23.114Z,10.33
2018-01-01T09:49:50.785Z,9.50
2018-01-01T09:52:18.434Z,7.67
2018-01-01T09:54:46.072Z,9.13
2018-01-01T09:57:13.744Z,8.23
2018-01-01T09:59:42.134Z,10.20
2018-01-01T10:02:09.815Z,6.13
2018-01-01T10:04:38.805Z,8.03
2018-01-01T10:07:06.427Z,7.50
2018-01-01T10:09:34.836Z,7.03
2018-01-01T10:12:02.537Z,9.00
2018-01-01T10:14:30.181Z,9.00
2018-01-01T10:16:57.894Z,7.30
2018-01-01T10:19:25.576Z,8.63
2018-01-01T10:21:53.211Z,7.60
2018-01-01T10:24:20.886Z,8.73
2018-01-01T10:26:48.552Z,8.20
2018-01-01T10:29:16.183Z,7.43
2018-01-01T10:31:43.958Z,7.73
2018-01-01T10:34:11.678Z,7.90
2018-01-01T10:36:39.346Z,7.23
2018-01-01T10:39:07.044Z,8.40
2018-01-01T10:41:34.760Z,8.97
2018-01-01T10:44:02.455Z,8.70
2018-01-01T10:46:30.115Z,10.60
2018-01-01T10:48:59.420Z,9.10
2018-01-01T10:51:27.157Z,7.27
2018-01-01T10:53:54.846Z,9.43
2018-01-01T10:56:24.215Z,10.60
2018-01-01T10:58:51.840Z,9.67
2018-01-01T11:01:19.481Z,9.40
2018-01-01T11:03:47.259Z,10.10
2018-01-01T11:06:14.889Z,9.53
2018-01-01T11:08:42.521Z,9.80
2018-01-01T11:11:10.189Z,8.60
2018-01-01T11:13:37.824Z,9.20
2018-01-01T11:16:05.502Z,8.53
2018-01-01T11:18:33.162Z,10.10
2018-01-01T11:21:00.968Z,9.13
2018-01-01T11:23:29.396Z,8.90
2018-01-01T11:25:57.206Z,8.33
2018-01-01T11:28:24.866Z,8.30
2018-01-01T11:30:52.697Z,11.87
2018-01-01T11:33:20.518Z,11.00
2018-01-01T11:35:48.972Z,9.40
2018-01-01T11:38:16.619Z,9.47
2018-01-01T11:40:44.329Z,7.93
2018-01-01T11:43:12.041Z,8.80
2018-01-01T11:45:39.799Z,10.00
2018-01-01T11:48:07.597Z,8.57
2018-01-01T11:50:36.282Z,7.97
2018-01-01T11:53:04.017Z,7.30
2018-01-01T11:55:31.721Z,7.53
2018-01-01T11:57:59.378Z,8.70
2018-01-01T12:00:27.046Z,8.70
2018-01-01T12:02:54.732Z,9.23
2018-01-01T12:11:22.663Z,7.50
2018-01-01T12:16:46.797Z,6.40
2018-01-01T12:19:16.350Z,6.30
2018-01-01T12:33:20.343Z,6.70
2018-01-01T12:39:18.789Z,8.43
2018-01-01T12:41:49.387Z,8.50
2018-01-01T12:44:26.467Z,7.83
2018-01-01T12:46:54.526Z,7.33
2018-01-01T12:49:22.258Z,8.53
2018-01-01T12:51:49.981Z,7.80
2018-01-01T12:54:17.605Z,8.43
2018-01-01T12:56:52.071Z,11.67
2018-01-01T12:59:22.564Z,8.90
2018-01-01T13:01:50.432Z,9.10
2018-01-01T13:04:18.063Z,7.53
2018-01-01T13:06:45.757Z,7.23
2018-01-01T13:09:13.451Z,5.87
2018-01-01T13:11:41.127Z,5.73
2018-01-01T13:14:09.638Z,8.60
2018-01-01T13:16:37.305Z,10.30
2018-01-01T13:19:05.707Z,6.97
2018-01-01T13:21:33.404Z,8.20
2018-01-01T13:24:01.138Z,12.07
2018-01-01T13:26:28.829Z,7.03
2018-01-01T13:28:56.522Z,6.40
2018-01-01T13:31:24.232Z,6.20
2018-01-01T13:33:51.882Z,8.20
2018-01-01T13:36:19.581Z,7.60
2018-01-01T13:38:47.257Z,9.93
2018-01-01T13:41:14.963Z,11.50
2018-01-01T13:43:43.461Z,13.33
2018-01-01T13:46:11.145Z,15.07
2018-01-01T13:48:39.588Z,14.70
2018-01-01T13:51:07.266Z,8.00
2018-01-01T13:53:34.936Z,6.47
2018-01-01T13:56:03.361Z,4.60
2018-01-01T13:58:31.093Z,5.27
2018-01-01T14:00:58.773Z,5.97
2018-01-01T14:03:26.421Z,7.63
2018-01-01T14:05:54.111Z,7.57
2018-01-01T14:08:21.751Z,7.83
2018-01-01T14:10:49.412Z,7.90
2018-01-01T14:13:17.090Z,12.40
2018-01-01T14:15:44.732Z,10.63
2018-01-01T14:18:12.408Z,10.50
2018-01-01T14:23:12.980Z,8.60
2018-01-01T14:25:40.769Z,11.63
2018-01-01T14:28:08.410Z,11.90
2018-01-01T14:30:36.054Z,9.30
2018-01-01T14:33:03.787Z,12.13
2018-01-01T14:35:31.543Z,9.97
2018-01-01T14:38:00.111Z,7.90
2018-01-01T14:40:27.857Z,7.83
2018-01-01T14:42:55.603Z,11.23
2018-01-01T14:45:23.300Z,10.97
2018-01-01T14:47:50.996Z,8.40
2018-01-01T14:50:18.673Z,6.97
2018-01-01T14:52:46.303Z,6.90
2018-01-01T14:55:14.051Z,12.53
2018-01-01T14:57:41.821Z,6.80
2018-01-01T15:00:09.487Z,9.00
2018-01-01T15:02:37.247Z,7.23
2018-01-01T15:05:04.958Z,7.57
2018-01-01T15:07:33.399Z,7.57
2018-01-01T15:10:01.084Z,6.60
2018-01-01T15:12:28.701Z,7.10
2018-01-01T15:14:56.333Z,7.50
2018-01-01T15:17:24.061Z,7.33
2018-01-01T15:19:51.683Z,9.20
2018-01-01T15:22:19.318Z,8.23
2018-01-01T15:24:47.025Z,7.90
2018-01-01T15:27:14.843Z,7.60
2018-01-01T15:29:42.499Z,9.90
2018-01-01T15:32:10.232Z,14.27
2018-01-01T15:34:37.891Z,10.53
2018-01-01T15:37:06.326Z,11.70
2018-01-01T15:39:34.015Z,10.10
2018-01-01T15:42:02.440Z,9.87
2018-01-01T15:44:30.054Z,9.40
2018-01-01T15:46:57.775Z,9.90
2018-01-01T15:49:26.321Z,9.93
2018-01-01T15:51:53.959Z,9.00
2018-01-01T15:54:21.609Z,9.63
2018-01-01T15:56:49.242Z,10.17
2018-01-01T15:59:16.951Z,11.47
2018-01-01T16:01:45.371Z,10.10
2018-01-01T16:04:13.003Z,9.27
2018-01-01T16:06:41.380Z,11.00
2018-01-01T16:09:10.193Z,11.00
2018-01-01T16:11:38.728Z,15.83
2018-01-01T16:14:07.186Z,15.63
2018-01-01T16:16:34.853Z,13.27
2018-01-01T16:19:02.538Z,11.97
2018-01-01T16:21:30.162Z,11.77
2018-01-01T16:23:57.817Z,10.17
2018-01-01T16:26:25.422Z,9.73
2018-01-01T16:28:54.268Z,10.77
2018-01-01T16:31:21.988Z,9.80
2018-01-01T16:33:49.628Z,11.60
2018-01-01T16:36:18.017Z,10.70
2018-01-01T16:38:45.722Z,9.20
2018-01-01T16:41:13.368Z,8.90
2018-01-01T16:43:41.004Z,8.23
2018-01-01T16:46:08.762Z,7.43
2018-01-01T16:48:37.161Z,8.80
2018-01-01T16:51:04.781Z,9.60
2018-01-01T16:53:32.463Z,9.57
2018-01-01T16:56:00.134Z,10.37
2018-01-01T16:58:28.554Z,9.30
2018-01-01T17:00:56.245Z,10.07
2018-01-01T17:03:23.872Z,8.67
2018-01-01T17:05:51.546Z,9.40
2018-01-01T17:08:19.273Z,9.20
2018-01-01T17:10:46.951Z,8.03
2018-01-01T17:13:14.933Z,9.17
2018-01-01T17:15:44.015Z,9.03
2018-01-01T17:18:11.673Z,9.07
2018-01-01T17:20:41.883Z,7.20
2018-01-01T17:23:52.676Z,8.83
2018-01-01T17:26:38.325Z,9.60
2018-01-01T17:29:06.934Z,8.37
2018-01-01T17:31:34.579Z,8.40
2018-01-01T17:37:02.397Z,10.07
2018-01-01T17:42:24.663Z,11.30
2018-01-01T17:44:52.457Z,8.10
2018-01-01T17:47:22.475Z,8.57
2018-01-01T17:50:06.909Z,9.27
2018-01-01T17:52:34.917Z,10.90
2018-01-01T17:55:04.552Z,10.10
2018-01-01T17:57:32.319Z,10.03
2018-01-01T17:59:59.975Z,9.50
2018-01-01T18:02:27.769Z,10.17
2018-01-01T18:04:55.430Z,9.23
2018-01-01T18:10:36.229Z,15.20
2018-01-01T18:19:05.848Z,19.53
2018-01-01T18:21:33.826Z,21.90
2018-01-01T18:24:02.176Z,18.77
2018-01-01T18:26:31.244Z,16.77
2018-01-01T18:28:59.303Z,11.63
2018-01-01T18:31:27.357Z,11.30
2018-01-01T18:33:56.128Z,14.57
2018-01-01T18:36:24.288Z,14.10
2018-01-01T18:38:52.149Z,10.53
2018-01-01T18:41:26.995Z,11.93
2018-01-01T18:43:56.245Z,9.60
2018-01-01T18:46:34.802Z,9.77
2018-01-01T18:49:15.158Z,14.43
2018-01-01T18:51:46.602Z,20.00
2018-01-01T18:54:15.570Z,10.97
2018-01-01T18:56:45.101Z,12.00
2018-01-01T18:59:14.918Z,15.57
2018-01-01T19:01:44.919Z,17.23
2018-01-01T19:04:13.418Z,22.63
2018-01-01T19:06:42.715Z,21.77
2018-01-01T19:09:11.076Z,14.67
2018-01-01T19:14:48.835Z,25.90
2018-01-01T19:17:16.586Z,16.00
2018-01-01T19:19:44.418Z,17.13
2018-01-01T19:22:12.321Z,29.33
2018-01-01T19:24:40.862Z,26.73
2018-01-01T19:27:08.520Z,20.20
2018-01-01T19:29:36.400Z,16.70
2018-01-01T19:32:04.163Z,18.07
2018-01-01T19:34:31.934Z,17.67
2018-01-01T19:36:59.758Z,22.27
2018-01-01T19:45:17.967Z,13.37
2018-01-01T19:57:32.001Z,16.13
2018-01-01T20:03:12.700Z,31.10
2018-01-01T20:05:41.009Z,20.50
2018-01-01T20:08:08.875Z,29.13
2018-01-01T20:10:38.465Z,24.73
2018-01-01T20:13:06.600Z,28.03
2018-01-01T20:15:34.492Z,21.67
2018-01-01T20:18:02.518Z,17.87
2018-01-01T20:20:31.099Z,21.17
2018-01-01T20:22:59.307Z,16.20
2018-01-01T20:25:31.492Z,18.87
2018-01-01T20:28:01.042Z,16.17
2018-01-01T20:30:40.640Z,16.93
2018-01-01T20:36:09.634Z,17.03
2018-01-01T20:41:48.619Z,24.03
2018-01-01T20:44:21.386Z,34.13
2018-01-01T20:46:51.972Z,32.30
2018-01-01T20:49:28.535Z,34.80
2018-01-01T20:51:59.385Z,15.50
2018-01-01T20:54:29.953Z,18.07
2018-01-01T20:57:01.610Z,21.90
2018-01-01T20:59:31.008Z,25.97
2018-01-01T21:02:10.228Z,25.73
2018-01-01T21:04:46.027Z,22.43
2018-01-01T21:07:14.983Z,19.07
2018-01-01T21:09:45.296Z,17.83
2018-01-01T21:12:14.225Z,27.93
2018-01-01T21:14:44.923Z,22.13
2018-01-01T21:17:15.131Z,23.80
2018-01-01T21:19:42.987Z,23.70
2018-01-01T21:22:11.395Z,21.60
2018-01-01T21:24:40.834Z,18.53
2018-01-01T21:27:11.069Z,23.27
2018-01-01T21:29:39.399Z,19.73
2018-01-01T21:32:08.554Z,18.40
2018-01-01T21:34:40.114Z,20.10
2018-01-01T21:37:08.247Z,20.73
2018-01-01T21:39:36.780Z,18.60
2018-01-01T21:42:04.660Z,21.57
2018-01-01T21:44:32.687Z,20.53
2018-01-01T21:47:00.811Z,23.77
2018-01-01T21:49:28.856Z,18.10
2018-01-01T21:51:57.298Z,17.90
2018-01-01T21:54:25.429Z,33.20
2018-01-01T21:56:53.441Z,35.03
2018-01-01T21:59:21.727Z,34.60
2018-01-01T22:01:49.548Z,17.97
2018-01-01T22:04:18.098Z,17.13
2018-01-01T22:06:46.042Z,33.00
2018-01-01T22:09:15.567Z,20.47
2018-01-01T22:11:43.558Z,17.97
2018-01-01T22:14:12.157Z,20.70
2018-01-01T22:16:41.988Z,21.60
2018-01-01T22:19:10.932Z,20.67
2018-01-01T22:21:40.691Z,19.23
2018-01-01T22:24:09.256Z,17.47
2018-01-01T22:26:37.798Z,18.40
2018-01-01T22:29:06.276Z,16.70
2018-01-01T22:31:34.970Z,17.90
2018-01-01T22:34:04.106Z,18.00
2018-01-01T22:36:32.009Z,15.57
2018-01-01T22:39:00.602Z,16.20
2018-01-01T22:41:29.553Z,16.00
2018-01-01T22:43:57.405Z,15.67
2018-01-01T22:46:25.561Z,16.77
2018-01-01T22:48:53.610Z,16.00
2018-01-01T22:51:21.677Z,16.60
2018-01-01T22:53:50.134Z,15.23
2018-01-01T22:56:18.463Z,16.67
2018-01-01T22:58:46.834Z,13.93
2018-01-01T23:01:15.581Z,14.70
2018-01-01T23:03:44.766Z,15.20
2018-01-01T23:06:13.854Z,12.27
2018-01-01T23:08:41.906Z,13.27
2018-01-01T23:11:09.672Z,13.73
2018-01-01T23:13:38.771Z,14.97
2018-01-01T23:16:14.050Z,15.13
2018-01-01T23:18:50.413Z,13.80
2018-01-01T23:21:19.449Z,14.70
2018-01-01T23:23:47.545Z,14.60
2018-01-01T23:26:15.939Z,12.23
2018-01-01T23:28:44.507Z,13.57
2018-01-01T23:31:12.355Z,13.63
2018-01-01T23:33:41.328Z,13.23
2018-01-01T23:36:09.079Z,11.10
2018-01-01T23:38:37.832Z,13.50
2018-01-01T23:41:05.549Z,13.97
2018-01-01T23:43:34.868Z,12.17
2018-01-01T23:46:02.674Z,12.20
2018-01-01T23:48:30.800Z,12.30
2018-01-01T23:50:59.660Z,11.20
2018-01-01T23:53:27.938Z,12.30
2018-01-01T23:55:56.252Z,11.10
2018-01-01T23:58:24.852Z,12.30
